createdAt,value
2023-01-21T00:01:07.755Z,86.02
2023-01-21T00:03:34.788Z,85.95
2023-01-21T00:06:02.217Z,86.04
2023-01-21T00:08:29.238Z,86.14
2023-01-21T00:10:56.269Z,86.40
2023-01-21T00:13:23.318Z,86.16
2023-01-21T00:15:50.452Z,86.19
2023-01-21T00:18:17.517Z,86.33
2023-01-21T00:20:46.672Z,86.29
2023-01-21T00:23:13.638Z,86.11
2023-01-21T00:25:40.560Z,86.48
2023-01-21T00:28:07.591Z,86.46
2023-01-21T00:30:35.638Z,86.47
2023-01-21T00:33:03.747Z,86.78
2023-01-21T00:35:30.893Z,86.91
2023-01-21T00:37:57.857Z,86.64
2023-01-21T00:40:26.169Z,86.58
2023-01-21T00:42:53.110Z,86.54
2023-01-21T00:45:20.224Z,86.69
2023-01-21T00:47:47.566Z,86.89
2023-01-21T00:50:14.782Z,86.75
2023-01-21T00:52:41.861Z,86.50
2023-01-21T00:55:09.307Z,86.44
2023-01-21T00:57:36.389Z,86.75
2023-01-21T01:00:04.653Z,86.80
2023-01-21T01:02:31.606Z,86.66
2023-01-21T01:04:58.735Z,86.95
2023-01-21T01:07:25.827Z,87.29
2023-01-21T01:09:53.207Z,87.28
2023-01-21T01:12:20.208Z,86.96
2023-01-21T01:14:47.673Z,86.99
2023-01-21T01:17:14.644Z,87.31
2023-01-21T01:19:41.571Z,87.20
2023-01-21T01:22:08.506Z,87.23
2023-01-21T01:24:35.463Z,87.60
2023-01-21T01:27:04.195Z,87.58
2023-01-21T01:29:31.265Z,87.46
2023-01-21T01:31:58.211Z,87.79
2023-01-21T01:34:25.262Z,87.45
2023-01-21T01:36:52.284Z,87.47
2023-01-21T01:39:19.282Z,87.45
2023-01-21T01:41:46.286Z,87.67
2023-01-21T01:45:02.326Z,87.34
2023-01-21T01:47:58.253Z,87.13
2023-01-21T01:50:30.105Z,87.37
2023-01-21T01:53:01.296Z,87.03
2023-01-21T01:55:35.854Z,86.79
2023-01-21T01:58:07.598Z,87.07
2023-01-21T02:00:34.945Z,86.85
2023-01-21T02:03:20.849Z,87.12
2023-01-21T02:05:48.408Z,86.88
2023-01-21T02:08:15.950Z,86.87
2023-01-21T02:10:43.029Z,86.77
2023-01-21T02:13:10.429Z,87.00
2023-01-21T02:16:10.478Z,87.06
2023-01-21T02:19:21.394Z,87.08
2023-01-21T02:22:07.133Z,86.91
2023-01-21T02:25:19.911Z,86.91
2023-01-21T02:28:17.896Z,86.47
2023-01-21T02:31:22.129Z,86.71
2023-01-21T02:34:14.347Z,86.68
2023-01-21T02:37:04.153Z,86.45
2023-01-21T02:39:57.382Z,86.56
2023-01-21T02:42:45.287Z,86.76
2023-01-21T02:45:27.356Z,86.71
2023-01-21T02:48:11.185Z,86.36
2023-01-21T02:50:51.392Z,86.65
2023-01-21T02:53:29.032Z,86.42
2023-01-21T02:56:04.015Z,86.32
2023-01-21T02:58:39.352Z,86.19
2023-01-21T03:01:15.164Z,86.28
2023-01-21T03:04:10.943Z,86.39
2023-01-21T03:07:08.786Z,86.29
2023-01-21T03:09:36.576Z,86.46
2023-01-21T03:12:19.993Z,86.30
2023-01-21T03:15:31.785Z,86.26
2023-01-21T03:18:25.295Z,86.28
2023-01-21T03:20:58.581Z,86.23
2023-01-21T03:23:37.850Z,86.34
2023-01-21T03:26:07.482Z,86.24
2023-01-21T03:28:41.695Z,86.34
2023-01-21T03:31:24.175Z,86.12
2023-01-21T03:33:55.510Z,86.08
2023-01-21T03:36:34.828Z,85.96
2023-01-21T03:39:13.246Z,85.90
2023-01-21T03:41:40.780Z,85.77
2023-01-21T03:44:08.089Z,86.04
2023-01-21T03:47:03.306Z,85.91
2023-01-21T03:49:44.645Z,85.75
2023-01-21T03:52:13.864Z,86.01
2023-01-21T03:54:41.335Z,85.94
2023-01-21T03:57:08.313Z,85.68
2023-01-21T03:59:35.259Z,86.07
2023-01-21T04:02:02.261Z,85.71
2023-01-21T04:04:29.235Z,85.80
2023-01-21T04:06:56.226Z,85.92
2023-01-21T04:09:23.251Z,85.68
2023-01-21T04:11:50.189Z,85.61
2023-01-21T04:14:17.110Z,85.69
2023-01-21T04:16:44.272Z,85.56
2023-01-21T04:19:11.217Z,85.69
2023-01-21T04:21:38.211Z,85.59
2023-01-21T04:24:05.709Z,85.41
2023-01-21T04:26:32.653Z,85.45
2023-01-21T04:28:59.613Z,85.67
2023-01-21T04:31:26.566Z,85.73
2023-01-21T04:33:53.596Z,85.61
2023-01-21T04:36:20.533Z,85.38
2023-01-21T04:38:47.464Z,85.63
2023-01-21T04:41:14.409Z,85.63
2023-01-21T04:43:41.355Z,85.51
2023-01-21T04:46:08.399Z,85.38
2023-01-21T04:48:35.451Z,85.41
2023-01-21T04:51:02.552Z,85.52
2023-01-21T04:53:29.549Z,85.30
2023-01-21T04:55:56.524Z,85.25
2023-01-21T04:58:23.852Z,85.48
2023-01-21T05:00:50.877Z,85.44
2023-01-21T05:03:17.868Z,85.74
2023-01-21T05:05:44.934Z,85.70
2023-01-21T05:08:11.914Z,85.54
2023-01-21T05:10:38.877Z,85.63
2023-01-21T05:13:05.964Z,85.64
2023-01-21T05:15:33.004Z,85.63
2023-01-21T05:18:00.633Z,85.81
2023-01-21T05:20:27.613Z,85.76
2023-01-21T05:22:54.585Z,85.75
2023-01-21T05:25:21.545Z,85.45
2023-01-21T05:27:55.444Z,85.30
2023-01-21T05:30:22.761Z,85.71
2023-01-21T05:32:54.368Z,85.50
2023-01-21T05:35:23.600Z,85.43
2023-01-21T05:37:51.000Z,85.75
2023-01-21T05:40:19.170Z,85.57
2023-01-21T05:42:46.875Z,85.38
2023-01-21T05:45:14.422Z,85.48
2023-01-21T05:47:42.068Z,85.45
2023-01-21T05:50:10.637Z,85.32
2023-01-21T05:52:37.955Z,85.32
2023-01-21T05:55:05.788Z,85.42
2023-01-21T05:57:33.229Z,85.42
2023-01-21T06:00:00.196Z,85.57
2023-01-21T06:02:27.521Z,85.53
2023-01-21T06:04:54.608Z,85.42
2023-01-21T06:07:21.572Z,85.69
2023-01-21T06:09:48.531Z,85.70
2023-01-21T06:12:15.458Z,85.40
2023-01-21T06:14:42.413Z,85.67
2023-01-21T06:17:09.355Z,85.61
2023-01-21T06:19:36.323Z,85.41
2023-01-21T06:22:03.292Z,85.62
2023-01-21T06:24:33.385Z,85.76
2023-01-21T06:27:00.322Z,85.52
2023-01-21T06:29:27.320Z,85.59
2023-01-21T06:31:54.353Z,85.65
2023-01-21T06:34:21.367Z,85.82
2023-01-21T06:36:48.292Z,85.68
2023-01-21T06:39:15.323Z,85.92
2023-01-21T06:41:42.539Z,85.88
2023-01-21T06:44:09.495Z,85.85
2023-01-21T06:46:37.481Z,86.07
2023-01-21T06:49:06.535Z,85.94
2023-01-21T06:51:33.509Z,85.79
2023-01-21T06:54:00.479Z,85.92
2023-01-21T06:56:27.484Z,85.90
2023-01-21T06:58:54.458Z,85.84
2023-01-21T07:01:21.464Z,86.16
2023-01-21T07:03:48.384Z,85.92
2023-01-21T07:06:15.294Z,86.05
2023-01-21T07:08:42.248Z,85.98
2023-01-21T07:11:09.220Z,85.88
2023-01-21T07:13:36.190Z,85.91
2023-01-21T07:16:05.956Z,86.05
2023-01-21T07:18:33.816Z,85.82
2023-01-21T07:21:01.149Z,86.01
2023-01-21T07:23:30.049Z,85.82
2023-01-21T07:25:57.013Z,85.87
2023-01-21T07:28:24.015Z,85.67
2023-01-21T07:30:51.017Z,85.89
2023-01-21T07:33:18.068Z,85.82
2023-01-21T07:35:45.076Z,85.78
2023-01-21T07:38:12.024Z,85.82
2023-01-21T07:40:38.939Z,85.69
2023-01-21T07:43:05.875Z,85.81
2023-01-21T07:45:32.813Z,85.82
2023-01-21T07:48:00.022Z,85.74
2023-01-21T07:50:27.751Z,86.06
2023-01-21T07:52:55.131Z,85.90
2023-01-21T07:55:22.746Z,85.75
2023-01-21T07:57:49.666Z,85.62
2023-01-21T08:00:17.607Z,85.77
2023-01-21T08:02:44.917Z,85.81
2023-01-21T08:05:12.272Z,85.85
2023-01-21T08:07:39.195Z,85.40
2023-01-21T08:10:06.395Z,85.55
2023-01-21T08:12:33.447Z,85.67
2023-01-21T08:15:00.386Z,85.49
2023-01-21T08:17:27.352Z,85.68
2023-01-21T08:19:54.488Z,85.49
2023-01-21T08:22:21.482Z,85.79
2023-01-21T08:24:48.686Z,85.28
2023-01-21T08:27:15.643Z,85.10
2023-01-21T08:29:42.604Z,85.01
2023-01-21T08:32:09.914Z,85.41
2023-01-21T08:34:37.103Z,85.06
2023-01-21T08:37:04.039Z,84.96
2023-01-21T08:39:30.960Z,85.02
2023-01-21T08:41:57.952Z,85.08
2023-01-21T08:44:24.915Z,85.08
2023-01-21T08:46:51.896Z,85.10
2023-01-21T08:49:18.959Z,84.71
2023-01-21T08:51:46.041Z,84.72
2023-01-21T08:54:13.005Z,84.70
2023-01-21T08:56:39.926Z,84.62
2023-01-21T08:59:07.069Z,84.49
2023-01-21T09:01:36.116Z,84.46
2023-01-21T09:04:03.109Z,84.63
2023-01-21T09:06:30.695Z,84.49
2023-01-21T09:08:58.379Z,84.35
2023-01-21T09:11:27.208Z,84.25
2023-01-21T09:13:54.162Z,84.22
2023-01-21T09:16:23.006Z,84.29
2023-01-21T09:18:50.442Z,84.13
2023-01-21T09:21:17.543Z,83.97
2023-01-21T09:23:44.775Z,84.00
2023-01-21T09:26:23.020Z,84.22
2023-01-21T09:28:58.898Z,83.65
2023-01-21T09:31:28.646Z,83.78
2023-01-21T09:34:00.577Z,83.90
2023-01-21T09:36:31.221Z,83.82
2023-01-21T09:38:58.752Z,83.72
2023-01-21T09:41:40.054Z,83.70
2023-01-21T09:44:35.534Z,83.38
2023-01-21T09:47:22.967Z,83.36
2023-01-21T09:50:09.630Z,83.49
2023-01-21T09:52:44.985Z,83.26
2023-01-21T09:55:19.662Z,82.92
2023-01-21T09:58:01.936Z,83.02
2023-01-21T10:00:55.371Z,83.04
2023-01-21T10:03:58.029Z,82.81
2023-01-21T10:06:38.384Z,82.80
2023-01-21T10:09:16.824Z,82.72
2023-01-21T10:11:52.999Z,82.49
2023-01-21T10:14:58.940Z,82.63
2023-01-21T10:17:53.309Z,82.34
2023-01-21T10:20:30.361Z,82.00
2023-01-21T10:23:15.511Z,82.01
2023-01-21T10:25:48.286Z,82.08
2023-01-21T10:28:25.362Z,82.07
2023-01-21T10:31:07.465Z,81.85
2023-01-21T10:33:34.891Z,82.20
2023-01-21T10:36:35.901Z,82.09
2023-01-21T10:39:22.364Z,81.76
2023-01-21T10:42:49.803Z,81.60
2023-01-21T10:45:42.728Z,81.43
2023-01-21T10:48:31.615Z,81.36
2023-01-21T10:51:20.731Z,81.37
2023-01-21T10:54:03.693Z,81.26
2023-01-21T10:56:54.815Z,81.20
2023-01-21T10:59:27.940Z,80.92
2023-01-21T11:02:32.859Z,80.83
2023-01-21T11:05:05.443Z,81.00
2023-01-21T11:07:39.186Z,80.77
2023-01-21T11:10:07.595Z,80.53
2023-01-21T11:12:34.932Z,80.72
2023-01-21T11:15:13.590Z,80.79
2023-01-21T11:17:44.953Z,80.74
2023-01-21T11:20:25.552Z,80.57
2023-01-21T11:22:52.646Z,80.64
2023-01-21T11:25:41.416Z,80.06
2023-01-21T11:28:27.201Z,80.50
2023-01-21T11:31:13.286Z,80.39
2023-01-21T11:33:42.812Z,80.35
2023-01-21T11:36:14.726Z,80.42
2023-01-21T11:38:43.162Z,80.26
2023-01-21T11:41:12.981Z,80.03
2023-01-21T11:43:51.455Z,80.18
2023-01-21T11:46:38.401Z,80.41
2023-01-21T11:49:08.424Z,80.01
2023-01-21T11:51:37.677Z,80.07
2023-01-21T11:54:27.783Z,80.28
2023-01-21T11:57:01.444Z,79.76
2023-01-21T11:59:43.831Z,79.89
2023-01-21T12:02:35.901Z,79.49
2023-01-21T12:05:12.214Z,79.89
2023-01-21T12:07:42.459Z,79.67
2023-01-21T12:10:12.560Z,79.91
2023-01-21T12:13:30.203Z,79.80
2023-01-21T12:16:37.335Z,79.45
2023-01-21T12:19:17.852Z,79.57
2023-01-21T12:22:18.506Z,79.19
2023-01-21T12:24:57.202Z,79.33
2023-01-21T12:28:02.879Z,78.92
2023-01-21T12:31:02.366Z,78.58
2023-01-21T12:33:32.081Z,78.58
2023-01-21T12:36:19.268Z,78.57
2023-01-21T12:39:11.377Z,78.09
2023-01-21T12:41:40.350Z,78.19
2023-01-21T12:44:28.408Z,78.05
2023-01-21T12:47:04.090Z,77.82
2023-01-21T12:49:59.148Z,77.57
2023-01-21T12:52:44.294Z,77.21
2023-01-21T12:55:39.698Z,77.16
2023-01-21T12:58:14.435Z,77.64
2023-01-21T13:00:48.927Z,77.23
2023-01-21T13:03:37.650Z,77.04
2023-01-21T13:06:52.776Z,76.77
2023-01-21T13:09:46.628Z,76.95
2023-01-21T13:12:26.658Z,76.82
2023-01-21T13:15:09.780Z,76.71
2023-01-21T13:17:40.840Z,76.72
2023-01-21T13:20:17.152Z,76.36
2023-01-21T13:23:21.449Z,76.58
2023-01-21T13:26:21.783Z,76.30
2023-01-21T13:28:57.725Z,76.39
2023-01-21T13:31:48.654Z,76.30
2023-01-21T13:34:22.367Z,76.75
2023-01-21T13:37:41.279Z,75.82
2023-01-21T13:41:02.704Z,75.95
2023-01-21T13:44:17.488Z,75.75
2023-01-21T13:47:13.976Z,76.08
2023-01-21T13:50:01.162Z,76.16
2023-01-21T13:52:47.301Z,76.34
2023-01-21T13:56:07.223Z,75.85
2023-01-21T13:58:56.356Z,76.16
2023-01-21T14:01:44.519Z,76.05
2023-01-21T14:04:37.046Z,76.10
2023-01-21T14:07:28.636Z,76.10
2023-01-21T14:10:20.465Z,76.04
2023-01-21T14:13:22.042Z,76.18
2023-01-21T14:16:02.991Z,76.20
2023-01-21T14:19:11.998Z,75.89
2023-01-21T14:22:22.475Z,75.95
2023-01-21T14:25:23.239Z,76.17
2023-01-21T14:28:09.217Z,76.25
2023-01-21T14:31:15.147Z,76.10
2023-01-21T14:33:53.107Z,76.01
2023-01-21T14:36:48.997Z,75.65
2023-01-21T14:39:42.159Z,75.81
2023-01-21T14:42:16.407Z,75.44
2023-01-21T14:44:49.105Z,75.36
2023-01-21T14:47:25.078Z,75.44
2023-01-21T14:49:57.484Z,75.14
2023-01-21T14:52:44.660Z,74.94
2023-01-21T14:55:30.665Z,74.79
2023-01-21T14:58:00.881Z,74.99
2023-01-21T15:00:35.192Z,74.62
2023-01-21T15:03:27.301Z,74.31
2023-01-21T15:06:00.472Z,74.23
2023-01-21T15:08:31.280Z,74.53
2023-01-21T15:11:08.164Z,74.33
2023-01-21T15:13:35.891Z,74.99
2023-01-21T15:16:17.570Z,75.20
2023-01-21T15:19:19.087Z,75.58
2023-01-21T15:22:20.617Z,76.32
2023-01-21T15:25:20.238Z,76.57
2023-01-21T15:28:43.408Z,77.00
2023-01-21T15:31:20.659Z,77.53
2023-01-21T15:34:04.401Z,77.97
2023-01-21T15:36:35.591Z,78.54
2023-01-21T15:39:11.971Z,79.53
2023-01-21T15:42:29.882Z,80.32
2023-01-21T15:45:23.964Z,81.08
2023-01-21T15:48:36.501Z,81.93
2023-01-21T15:51:20.827Z,82.62
2023-01-21T15:54:04.286Z,83.20
2023-01-21T15:56:48.903Z,83.85
2023-01-21T15:59:52.347Z,84.61
2023-01-21T16:02:32.097Z,84.96
2023-01-21T16:05:29.258Z,85.80
2023-01-21T16:08:08.185Z,86.33
2023-01-21T16:11:06.545Z,87.13
2023-01-21T16:14:07.245Z,87.57
2023-01-21T16:17:06.857Z,88.46
2023-01-21T16:19:40.997Z,88.94
2023-01-21T16:22:11.542Z,89.77
2023-01-21T16:24:47.553Z,90.03
2023-01-21T16:27:28.274Z,90.63
2023-01-21T16:29:57.740Z,90.76
2023-01-21T16:32:24.918Z,91.16
2023-01-21T16:34:51.921Z,91.53
2023-01-21T16:37:23.223Z,91.88
2023-01-21T16:39:55.622Z,92.19
2023-01-21T16:42:44.136Z,92.43
2023-01-21T16:45:22.913Z,92.84
2023-01-21T16:47:58.789Z,92.88
2023-01-21T16:50:31.176Z,93.14
2023-01-21T16:53:00.618Z,93.53
2023-01-21T16:55:30.884Z,93.82
2023-01-21T16:57:59.460Z,94.19
2023-01-21T17:00:32.705Z,94.49
2023-01-21T17:03:01.014Z,94.82
2023-01-21T17:05:34.162Z,94.62
2023-01-21T17:08:04.540Z,95.47
2023-01-21T17:10:39.588Z,95.73
2023-01-21T17:13:15.880Z,96.20
2023-01-21T17:16:00.002Z,96.48
2023-01-21T17:18:37.738Z,96.86
2023-01-21T17:21:13.723Z,97.42
2023-01-21T17:23:52.721Z,97.43
2023-01-21T17:26:37.991Z,97.65
2023-01-21T17:29:18.889Z,97.57
2023-01-21T17:31:55.218Z,97.82
2023-01-21T17:34:26.560Z,98.13
2023-01-21T17:36:54.791Z,98.37
2023-01-21T17:39:46.337Z,98.49
2023-01-21T17:42:21.064Z,98.85
2023-01-21T17:44:51.161Z,98.91
2023-01-21T17:47:39.514Z,99.02
2023-01-21T17:50:33.095Z,99.21
2023-01-21T17:53:07.195Z,99.20
2023-01-21T17:55:40.201Z,99.56
2023-01-21T17:58:31.709Z,99.64
2023-01-21T18:01:02.597Z,99.90
2023-01-21T18:03:29.541Z,99.88
2023-01-21T18:05:57.021Z,100.00
2023-01-21T18:08:24.688Z,100.00
2023-01-21T18:10:51.853Z,100.00
2023-01-21T18:13:21.701Z,100.00
2023-01-21T18:15:51.681Z,100.00
2023-01-21T18:18:27.463Z,100.00
2023-01-21T18:20:55.093Z,100.00
2023-01-21T18:23:22.867Z,100.00
2023-01-21T18:25:52.982Z,100.00
2023-01-21T18:28:26.688Z,100.00
2023-01-21T18:30:59.579Z,100.00
2023-01-21T18:33:26.847Z,100.00
2023-01-21T18:35:53.994Z,100.00
2023-01-21T18:38:27.596Z,100.00
2023-01-21T18:40:58.092Z,100.00
2023-01-21T18:43:26.279Z,100.00
2023-01-21T18:45:54.649Z,100.00
2023-01-21T18:48:29.753Z,100.00
2023-01-21T18:50:56.848Z,100.00
2023-01-21T18:53:23.983Z,100.00
2023-01-21T18:55:55.639Z,100.00
2023-01-21T18:58:22.956Z,100.00
2023-01-21T19:00:50.208Z,100.00
2023-01-21T19:03:17.796Z,100.00
2023-01-21T19:05:50.026Z,100.00
2023-01-21T19:08:22.085Z,100.00
2023-01-21T19:10:49.082Z,100.00
2023-01-21T19:13:16.208Z,100.00
2023-01-21T19:15:43.690Z,100.00
2023-01-21T19:18:12.739Z,100.00
2023-01-21T19:20:41.553Z,100.00
2023-01-21T19:23:15.655Z,100.00
2023-01-21T19:25:49.636Z,100.00
2023-01-21T19:28:16.712Z,100.00
2023-01-21T19:30:45.260Z,100.00
2023-01-21T19:33:12.794Z,100.00
2023-01-21T19:35:43.960Z,100.00
2023-01-21T19:38:20.747Z,100.00
2023-01-21T19:40:47.766Z,100.00
2023-01-21T19:43:17.323Z,100.00
2023-01-21T19:45:44.771Z,100.00
2023-01-21T19:48:22.195Z,100.00
2023-01-21T19:50:49.685Z,100.00
2023-01-21T19:53:21.190Z,100.00
2023-01-21T19:55:50.678Z,100.00
2023-01-21T19:58:21.279Z,100.00
2023-01-21T20:00:51.131Z,100.00
2023-01-21T20:03:21.211Z,100.00
2023-01-21T20:06:01.057Z,100.00
2023-01-21T20:08:30.717Z,100.00
2023-01-21T20:10:57.737Z,100.00
2023-01-21T20:13:26.101Z,100.00
2023-01-21T20:15:53.366Z,100.00
2023-01-21T20:18:28.218Z,100.00
2023-01-21T20:20:55.673Z,100.00
2023-01-21T20:23:23.770Z,100.00
2023-01-21T20:25:55.549Z,100.00
2023-01-21T20:28:26.148Z,100.00
2023-01-21T20:30:54.597Z,100.00
2023-01-21T20:33:23.725Z,100.00
2023-01-21T20:35:55.809Z,100.00
2023-01-21T20:38:37.224Z,100.00
2023-01-21T20:41:05.998Z,100.00
2023-01-21T20:43:34.144Z,100.00
2023-01-21T20:46:04.945Z,100.00
2023-01-21T20:48:41.572Z,100.00
2023-01-21T20:51:09.012Z,100.00
2023-01-21T20:53:37.405Z,100.00
2023-01-21T20:56:34.188Z,100.00
2023-01-21T20:59:01.317Z,100.00
2023-01-21T21:01:29.212Z,100.00
2023-01-21T21:03:56.213Z,100.00
2023-01-21T21:06:26.790Z,100.00
2023-01-21T21:08:53.993Z,100.00
2023-01-21T21:11:21.068Z,100.00
2023-01-21T21:13:51.701Z,100.00
2023-01-21T21:16:24.024Z,100.00
2023-01-21T21:18:51.568Z,100.00
2023-01-21T21:21:22.499Z,100.00
2023-01-21T21:23:51.576Z,100.00
2023-01-21T21:26:24.361Z,100.00
2023-01-21T21:28:57.460Z,100.00
2023-01-21T21:31:26.134Z,100.00
2023-01-21T21:33:53.650Z,100.00
2023-01-21T21:36:23.874Z,100.00
2023-01-21T21:38:55.542Z,100.00
2023-01-21T21:41:43.630Z,100.00
2023-01-21T21:44:11.760Z,100.00
2023-01-21T21:46:57.979Z,100.00
2023-01-21T21:49:25.087Z,100.00
2023-01-21T21:51:52.306Z,100.00
2023-01-21T21:54:19.347Z,100.00
2023-01-21T21:56:47.199Z,100.00
2023-01-21T21:59:15.038Z,100.00
2023-01-21T22:01:43.480Z,100.00
2023-01-21T22:04:11.092Z,100.00
2023-01-21T22:06:38.897Z,100.00
2023-01-21T22:09:06.547Z,100.00
2023-01-21T22:11:33.944Z,100.00
2023-01-21T22:14:04.638Z,100.00
2023-01-21T22:16:32.648Z,100.00
2023-01-21T22:19:00.593Z,100.00
2023-01-21T22:21:32.038Z,100.00
2023-01-21T22:24:00.557Z,100.00
2023-01-21T22:26:28.661Z,100.00
2023-01-21T22:28:56.185Z,100.00
2023-01-21T22:31:29.131Z,100.00
2023-01-21T22:33:58.247Z,100.00
2023-01-21T22:36:28.179Z,100.00
2023-01-21T22:38:55.343Z,100.00
2023-01-21T22:41:24.382Z,100.00
2023-01-21T22:43:52.724Z,100.00
2023-01-21T22:46:30.066Z,100.00
2023-01-21T22:48:57.657Z,100.00
2023-01-21T22:51:25.151Z,100.00
2023-01-21T22:53:53.603Z,100.00
2023-01-21T22:56:39.897Z,100.00
2023-01-21T22:59:11.131Z,100.00
2023-01-21T23:01:38.199Z,100.00
2023-01-21T23:04:05.431Z,100.00
2023-01-21T23:06:32.388Z,100.00
2023-01-21T23:08:59.445Z,100.00
2023-01-21T23:11:26.470Z,100.00
2023-01-21T23:13:55.359Z,100.00
2023-01-21T23:16:22.833Z,100.00
2023-01-21T23:18:52.130Z,100.00
2023-01-21T23:21:22.281Z,100.00
2023-01-21T23:23:49.810Z,100.00
2023-01-21T23:26:19.306Z,100.00
2023-01-21T23:28:47.319Z,100.00
2023-01-21T23:31:17.270Z,100.00
2023-01-21T23:33:48.667Z,100.00
2023-01-21T23:36:15.782Z,100.00
2023-01-21T23:38:43.268Z,100.00
2023-01-21T23:41:13.744Z,100.00
2023-01-21T23:43:41.091Z,100.00
2023-01-21T23:46:12.627Z,100.00
2023-01-21T23:48:40.127Z,100.00
2023-01-21T23:51:14.547Z,100.00
2023-01-21T23:53:41.733Z,100.00
2023-01-21T23:56:23.283Z,100.00
2023-01-21T23:58:50.488Z,100.00
